Pickstown, South Dakota
Current Conditions -  °F | °C
As of 9:15 PM on Wednesday 22 Oct 2014 (Local Time) from KONL Reporting Station
Moderate Fog Moderate Fog  
Wind Chill: 49°   Ceiling: 500
Heat Index: 49°   Visibility: 0.5mi
Dew Point: 49°   Wind: 3mph
Humidity: 100%   Direction: 220°SW
Pressure: 30.05"   Gusts: NA
Location:  43.07°N, 98.53°W
Report Text: KONL 230215Z AUTO 22003KT 1/2SM FG VV005 10/10 A3005 RMK AO2 T00950095
Loading
Personal Weather Stations






























Interactive Weather Map New forecast layout! Learn more

10-Day Weather Forecast

Advertisements
Track Severe Weather on mobile